Dzaoudzi, Comoros
Current Conditions -  °F | °C
As of 12:30 AM on Saturday 25 Oct 2014 (Local Time) from FMCZ Reporting Station
Clear Clear  
Wind Chill: 24°   Ceiling: Unl
Heat Index: 24°   Visibility: 6mi
Dew Point: 21°   Wind: 3mph
Humidity: 83%   Direction: 20°NNE
Pressure: 29.91"   Gusts: NA
Location:  12.8°S, 45.28°E
Report Text: FMCZ 242130Z AUTO 02003KT 9999 NCD 24/21 Q1013
Loading
Personal Weather Stations






























Interactive Weather Map
Tropical Storm Tracking
New forecast layout! Learn more

10-Day Weather Forecast

Advertisements
Track Severe Weather on mobile